sensor_id;sensor_type;location;lat;lon;timestamp;temperature;humidity
80426;DHT22;69766;51.476;5.704;2024-03-23T00:52:46;6.70;99.90
80426;DHT22;69766;51.476;5.704;2024-03-23T00:55:12;6.70;99.90
80426;DHT22;69766;51.476;5.704;2024-03-23T00:57:38;6.70;99.90
80426;DHT22;69766;51.476;5.704;2024-03-23T01:00:05;6.70;99.90
80426;DHT22;69766;51.476;5.704;2024-03-23T01:02:32;6.90;99.90
80426;DHT22;69766;51.476;5.704;2024-03-23T01:04:58;6.80;99.90
80426;DHT22;69766;51.476;5.704;2024-03-23T01:07:24;6.70;99.90
80426;DHT22;69766;51.476;5.704;2024-03-23T01:09:50;6.70;99.90
80426;DHT22;69766;51.476;5.704;2024-03-23T01:12:28;6.70;99.90
80426;DHT22;69766;51.476;5.704;2024-03-23T01:15:03;6.70;99.90
80426;DHT22;69766;51.476;5.704;2024-03-23T01:17:29;6.60;99.90
80426;DHT22;69766;51.476;5.704;2024-03-23T01:19:55;6.60;99.90
80426;DHT22;69766;51.476;5.704;2024-03-23T01:22:21;6.50;99.90
80426;DHT22;69766;51.476;5.704;2024-03-23T01:24:46;6.50;99.90
80426;DHT22;69766;51.476;5.704;2024-03-23T01:27:12;6.60;99.90
80426;DHT22;69766;51.476;5.704;2024-03-23T01:29:38;6.60;99.90
80426;DHT22;69766;51.476;5.704;2024-03-23T01:32:04;6.60;99.90
80426;DHT22;69766;51.476;5.704;2024-03-23T01:34:30;6.60;99.90
80426;DHT22;69766;51.476;5.704;2024-03-23T01:36:56;6.60;99.90
80426;DHT22;69766;51.476;5.704;2024-03-23T01:39:22;6.60;99.90
80426;DHT22;69766;51.476;5.704;2024-03-23T01:41:51;6.60;99.90
80426;DHT22;69766;51.476;5.704;2024-03-23T01:47:23;6.60;99.90
80426;DHT22;69766;51.476;5.704;2024-03-23T01:49:49;6.60;99.90
80426;DHT22;69766;51.476;5.704;2024-03-23T01:58:41;6.50;99.90
80426;DHT22;69766;51.476;5.704;2024-03-23T02:01:07;6.40;99.90
80426;DHT22;69766;51.476;5.704;2024-03-23T02:03:32;6.50;99.90
80426;DHT22;69766;51.476;5.704;2024-03-23T02:05:58;6.50;99.90
80426;DHT22;69766;51.476;5.704;2024-03-23T02:08:24;6.60;99.90
80426;DHT22;69766;51.476;5.704;2024-03-23T02:10:53;6.50;99.90
80426;DHT22;69766;51.476;5.704;2024-03-23T02:13:19;6.50;99.90
80426;DHT22;69766;51.476;5.704;2024-03-23T02:15:45;6.40;99.90
80426;DHT22;69766;51.476;5.704;2024-03-23T02:18:10;6.50;99.90
80426;DHT22;69766;51.476;5.704;2024-03-23T02:20:37;6.50;99.90
80426;DHT22;69766;51.476;5.704;2024-03-23T02:23:04;6.50;99.90
80426;DHT22;69766;51.476;5.704;2024-03-23T02:25:32;6.40;99.90
80426;DHT22;69766;51.476;5.704;2024-03-23T02:27:58;6.50;99.90
80426;DHT22;69766;51.476;5.704;2024-03-23T02:30:25;6.50;99.90
80426;DHT22;69766;51.476;5.704;2024-03-23T02:32:51;6.40;99.90
80426;DHT22;69766;51.476;5.704;2024-03-23T02:35:17;6.40;99.90
80426;DHT22;69766;51.476;5.704;2024-03-23T02:40:52;6.40;99.90
80426;DHT22;69766;51.476;5.704;2024-03-23T02:43:18;6.40;99.90
80426;DHT22;69766;51.476;5.704;2024-03-23T02:45:49;6.30;99.90
80426;DHT22;69766;51.476;5.704;2024-03-23T02:48:18;6.30;99.90
80426;DHT22;69766;51.476;5.704;2024-03-23T02:50:44;6.30;99.90
80426;DHT22;69766;51.476;5.704;2024-03-23T02:53:09;6.30;99.90
80426;DHT22;69766;51.476;5.704;2024-03-23T02:55:35;6.30;99.90
80426;DHT22;69766;51.476;5.704;2024-03-23T02:58:01;6.30;99.90
80426;DHT22;69766;51.476;5.704;2024-03-23T03:00:28;6.30;99.90
80426;DHT22;69766;51.476;5.704;2024-03-23T03:02:54;6.30;99.90
80426;DHT22;69766;51.476;5.704;2024-03-23T03:05:21;6.20;99.90
80426;DHT22;69766;51.476;5.704;2024-03-23T03:07:46;6.20;99.90
80426;DHT22;69766;51.476;5.704;2024-03-23T03:10:12;6.30;99.90
80426;DHT22;69766;51.476;5.704;2024-03-23T03:12:38;6.10;99.90
80426;DHT22;69766;51.476;5.704;2024-03-23T03:15:10;6.10;99.90
80426;DHT22;69766;51.476;5.704;2024-03-23T03:17:36;6.10;99.90
80426;DHT22;69766;51.476;5.704;2024-03-23T03:20:02;6.20;99.90
80426;DHT22;69766;51.476;5.704;2024-03-23T03:22:30;6.10;99.90
80426;DHT22;69766;51.476;5.704;2024-03-23T03:24:56;6.10;99.90
80426;DHT22;69766;51.476;5.704;2024-03-23T03:27:22;6.10;99.90
80426;DHT22;69766;51.476;5.704;2024-03-23T03:30:28;6.10;99.90
80426;DHT22;69766;51.476;5.704;2024-03-23T03:32:54;6.10;99.90
80426;DHT22;69766;51.476;5.704;2024-03-23T03:35:21;6.10;99.90
80426;DHT22;69766;51.476;5.704;2024-03-23T03:38:07;6.10;99.90
80426;DHT22;69766;51.476;5.704;2024-03-23T03:40:32;6.00;99.90
80426;DHT22;69766;51.476;5.704;2024-03-23T03:42:58;6.00;99.90
80426;DHT22;69766;51.476;5.704;2024-03-23T03:45:24;6.00;99.90
80426;DHT22;69766;51.476;5.704;2024-03-23T03:47:50;6.00;99.90
80426;DHT22;69766;51.476;5.704;2024-03-23T03:50:19;6.00;99.90
80426;DHT22;69766;51.476;5.704;2024-03-23T03:52:48;6.00;99.90
80426;DHT22;69766;51.476;5.704;2024-03-23T03:55:36;6.00;99.90
80426;DHT22;69766;51.476;5.704;2024-03-23T03:58:02;5.90;99.90
80426;DHT22;69766;51.476;5.704;2024-03-23T04:00:28;5.90;99.90
80426;DHT22;69766;51.476;5.704;2024-03-23T04:03:06;5.90;99.90
80426;DHT22;69766;51.476;5.704;2024-03-23T04:05:32;5.80;99.90
80426;DHT22;69766;51.476;5.704;2024-03-23T04:07:58;5.70;99.90
80426;DHT22;69766;51.476;5.704;2024-03-23T04:10:26;5.70;99.90
80426;DHT22;69766;51.476;5.704;2024-03-23T04:12:52;5.70;99.90
80426;DHT22;69766;51.476;5.704;2024-03-23T04:15:20;5.60;99.90
80426;DHT22;69766;51.476;5.704;2024-03-23T04:17:46;5.60;99.90
80426;DHT22;69766;51.476;5.704;2024-03-23T04:20:14;5.60;99.90
80426;DHT22;69766;51.476;5.704;2024-03-23T04:22:42;5.50;99.90
80426;DHT22;69766;51.476;5.704;2024-03-23T04:25:11;5.50;99.90
80426;DHT22;69766;51.476;5.704;2024-03-23T04:27:37;5.40;99.90
80426;DHT22;69766;51.476;5.704;2024-03-23T04:30:05;5.40;99.90
80426;DHT22;69766;51.476;5.704;2024-03-23T04:32:36;5.30;99.90
80426;DHT22;69766;51.476;5.704;2024-03-23T04:35:22;5.30;99.90
80426;DHT22;69766;51.476;5.704;2024-03-23T04:37:51;5.20;99.90
80426;DHT22;69766;51.476;5.704;2024-03-23T04:40:21;5.20;99.90
80426;DHT22;69766;51.476;5.704;2024-03-23T04:42:47;5.10;99.90
80426;DHT22;69766;51.476;5.704;2024-03-23T04:45:13;5.10;99.90
80426;DHT22;69766;51.476;5.704;2024-03-23T04:47:39;5.10;99.90
80426;DHT22;69766;51.476;5.704;2024-03-23T04:50:05;5.00;99.90
80426;DHT22;69766;51.476;5.704;2024-03-23T04:52:35;4.90;99.90
80426;DHT22;69766;51.476;5.704;2024-03-23T04:55:19;4.90;99.90
80426;DHT22;69766;51.476;5.704;2024-03-23T04:57:45;4.80;99.90
80426;DHT22;69766;51.476;5.704;2024-03-23T05:00:48;4.80;99.90
80426;DHT22;69766;51.476;5.704;2024-03-23T05:03:14;4.70;99.90
80426;DHT22;69766;51.476;5.704;2024-03-23T05:06:00;4.70;99.90
80426;DHT22;69766;51.476;5.704;2024-03-23T05:08:26;4.60;99.90
80426;DHT22;69766;51.476;5.704;2024-03-23T05:10:51;4.80;99.90
80426;DHT22;69766;51.476;5.704;2024-03-23T05:13:17;4.70;99.90
80426;DHT22;69766;51.476;5.704;2024-03-23T05:15:43;4.70;99.90
80426;DHT22;69766;51.476;5.704;2024-03-23T05:18:09;4.70;99.90
80426;DHT22;69766;51.476;5.704;2024-03-23T05:20:38;4.70;99.90
80426;DHT22;69766;51.476;5.704;2024-03-23T05:23:05;4.60;99.90
80426;DHT22;69766;51.476;5.704;2024-03-23T05:25:51;4.60;99.90
80426;DHT22;69766;51.476;5.704;2024-03-23T05:28:20;4.60;99.90
80426;DHT22;69766;51.476;5.704;2024-03-23T05:30:53;4.60;99.90
80426;DHT22;69766;51.476;5.704;2024-03-23T05:33:19;4.60;99.90
80426;DHT22;69766;51.476;5.704;2024-03-23T05:35:45;4.60;99.90
80426;DHT22;69766;51.476;5.704;2024-03-23T05:38:19;4.70;99.90
80426;DHT22;69766;51.476;5.704;2024-03-23T05:40:56;4.60;99.90
80426;DHT22;69766;51.476;5.704;2024-03-23T05:43:22;4.60;99.90
80426;DHT22;69766;51.476;5.704;2024-03-23T05:46:18;4.60;99.90
80426;DHT22;69766;51.476;5.704;2024-03-23T05:48:50;4.50;99.90
80426;DHT22;69766;51.476;5.704;2024-03-23T05:51:19;4.50;99.90
80426;DHT22;69766;51.476;5.704;2024-03-23T05:53:47;4.60;99.90
80426;DHT22;69766;51.476;5.704;2024-03-23T05:59:02;4.60;99.90
80426;DHT22;69766;51.476;5.704;2024-03-23T06:01:32;4.60;99.90
80426;DHT22;69766;51.476;5.704;2024-03-23T06:04:00;4.70;99.90
80426;DHT22;69766;51.476;5.704;2024-03-23T06:06:27;4.80;99.90
80426;DHT22;69766;51.476;5.704;2024-03-23T06:08:53;4.90;99.90
80426;DHT22;69766;51.476;5.704;2024-03-23T06:11:48;4.90;99.90
80426;DHT22;69766;51.476;5.704;2024-03-23T06:14:22;4.90;99.90
80426;DHT22;69766;51.476;5.704;2024-03-23T06:17:15;5.00;99.90
80426;DHT22;69766;51.476;5.704;2024-03-23T06:19:44;5.00;99.90
80426;DHT22;69766;51.476;5.704;2024-03-23T06:22:24;5.00;99.90
80426;DHT22;69766;51.476;5.704;2024-03-23T06:25:13;5.00;99.90
80426;DHT22;69766;51.476;5.704;2024-03-23T06:27:40;5.00;99.90
80426;DHT22;69766;51.476;5.704;2024-03-23T06:30:19;5.00;99.90
80426;DHT22;69766;51.476;5.704;2024-03-23T06:32:44;5.00;99.90
80426;DHT22;69766;51.476;5.704;2024-03-23T06:35:13;5.10;99.90
80426;DHT22;69766;51.476;5.704;2024-03-23T06:37:48;5.20;99.90
80426;DHT22;69766;51.476;5.704;2024-03-23T06:40:19;5.30;99.90
80426;DHT22;69766;51.476;5.704;2024-03-23T06:42:50;5.40;99.90
80426;DHT22;69766;51.476;5.704;2024-03-23T06:45:36;5.60;99.90
80426;DHT22;69766;51.476;5.704;2024-03-23T06:48:02;6.00;99.90
80426;DHT22;69766;51.476;5.704;2024-03-23T06:50:29;6.10;99.90
80426;DHT22;69766;51.476;5.704;2024-03-23T06:52:57;6.20;99.90
80426;DHT22;69766;51.476;5.704;2024-03-23T06:55:23;6.40;99.90
80426;DHT22;69766;51.476;5.704;2024-03-23T06:57:50;6.50;99.90
80426;DHT22;69766;51.476;5.704;2024-03-23T07:00:36;6.40;99.90
80426;DHT22;69766;51.476;5.704;2024-03-23T07:03:02;6.30;99.90
80426;DHT22;69766;51.476;5.704;2024-03-23T07:08:37;6.20;99.90
80426;DHT22;69766;51.476;5.704;2024-03-23T07:11:03;6.30;99.90
80426;DHT22;69766;51.476;5.704;2024-03-23T07:13:28;6.40;99.90
80426;DHT22;69766;51.476;5.704;2024-03-23T07:15:54;6.50;99.90
80426;DHT22;69766;51.476;5.704;2024-03-23T07:18:23;6.40;99.90
80426;DHT22;69766;51.476;5.704;2024-03-23T07:20:56;6.30;99.90
80426;DHT22;69766;51.476;5.704;2024-03-23T07:23:23;6.20;99.90
80426;DHT22;69766;51.476;5.704;2024-03-23T07:26:05;6.10;99.90
80426;DHT22;69766;51.476;5.704;2024-03-23T07:28:31;6.00;99.90
80426;DHT22;69766;51.476;5.704;2024-03-23T07:31:08;6.00;99.90
80426;DHT22;69766;51.476;5.704;2024-03-23T07:33:35;6.20;99.90
80426;DHT22;69766;51.476;5.704;2024-03-23T07:36:01;6.50;99.90
80426;DHT22;69766;51.476;5.704;2024-03-23T07:38:28;6.90;99.90
80426;DHT22;69766;51.476;5.704;2024-03-23T07:41:10;7.30;99.90
80426;DHT22;69766;51.476;5.704;2024-03-23T07:43:40;7.50;99.90
80426;DHT22;69766;51.476;5.704;2024-03-23T07:46:06;7.20;99.90
80426;DHT22;69766;51.476;5.704;2024-03-23T07:48:32;7.20;99.90
80426;DHT22;69766;51.476;5.704;2024-03-23T07:51:06;7.10;99.90
80426;DHT22;69766;51.476;5.704;2024-03-23T07:53:32;7.00;99.90
80426;DHT22;69766;51.476;5.704;2024-03-23T07:56:06;7.20;99.90
80426;DHT22;69766;51.476;5.704;2024-03-23T07:58:32;7.40;99.90
80426;DHT22;69766;51.476;5.704;2024-03-23T08:01:04;7.50;99.90
80426;DHT22;69766;51.476;5.704;2024-03-23T08:03:30;7.50;99.90
80426;DHT22;69766;51.476;5.704;2024-03-23T08:05:56;7.70;99.90
80426;DHT22;69766;51.476;5.704;2024-03-23T08:08:22;7.50;99.90
80426;DHT22;69766;51.476;5.704;2024-03-23T08:10:51;7.50;99.90
80426;DHT22;69766;51.476;5.704;2024-03-23T08:13:18;7.70;99.90
80426;DHT22;69766;51.476;5.704;2024-03-23T08:15:43;8.00;99.90
80426;DHT22;69766;51.476;5.704;2024-03-23T08:18:13;8.50;99.90
80426;DHT22;69766;51.476;5.704;2024-03-23T08:20:39;8.90;99.90
80426;DHT22;69766;51.476;5.704;2024-03-23T08:23:07;9.00;99.90
80426;DHT22;69766;51.476;5.704;2024-03-23T08:25:34;9.10;99.90
80426;DHT22;69766;51.476;5.704;2024-03-23T08:28:00;9.10;99.90
80426;DHT22;69766;51.476;5.704;2024-03-23T08:30:26;9.40;99.90
80426;DHT22;69766;51.476;5.704;2024-03-23T08:32:52;9.30;99.90
80426;DHT22;69766;51.476;5.704;2024-03-23T08:35:18;9.30;99.90
80426;DHT22;69766;51.476;5.704;2024-03-23T08:37:43;9.80;99.90
80426;DHT22;69766;51.476;5.704;2024-03-23T08:40:09;10.20;99.90
80426;DHT22;69766;51.476;5.704;2024-03-23T08:42:35;10.50;99.90
80426;DHT22;69766;51.476;5.704;2024-03-23T08:45:01;10.40;99.90
80426;DHT22;69766;51.476;5.704;2024-03-23T08:47:27;10.00;99.90
80426;DHT22;69766;51.476;5.704;2024-03-23T08:49:52;9.50;99.90
80426;DHT22;69766;51.476;5.704;2024-03-23T08:52:18;9.30;99.90
80426;DHT22;69766;51.476;5.704;2024-03-23T08:54:47;9.40;99.90
80426;DHT22;69766;51.476;5.704;2024-03-23T08:57:13;9.30;99.90
80426;DHT22;69766;51.476;5.704;2024-03-23T08:59:38;9.60;99.90
80426;DHT22;69766;51.476;5.704;2024-03-23T09:02:04;9.40;99.90
80426;DHT22;69766;51.476;5.704;2024-03-23T09:04:30;9.00;99.90
80426;DHT22;69766;51.476;5.704;2024-03-23T09:06:56;8.80;99.90
80426;DHT22;69766;51.476;5.704;2024-03-23T09:09:24;8.60;99.90
80426;DHT22;69766;51.476;5.704;2024-03-23T09:11:50;8.50;99.90
80426;DHT22;69766;51.476;5.704;2024-03-23T09:14:15;8.40;99.90
80426;DHT22;69766;51.476;5.704;2024-03-23T09:16:41;8.30;99.90
80426;DHT22;69766;51.476;5.704;2024-03-23T09:19:10;8.20;99.90
80426;DHT22;69766;51.476;5.704;2024-03-23T09:21:35;8.00;99.90
80426;DHT22;69766;51.476;5.704;2024-03-23T09:24:01;7.60;99.90
80426;DHT22;69766;51.476;5.704;2024-03-23T09:26:26;6.80;99.90
80426;DHT22;69766;51.476;5.704;2024-03-23T09:28:52;6.30;99.90
80426;DHT22;69766;51.476;5.704;2024-03-23T09:31:18;5.80;99.90
80426;DHT22;69766;51.476;5.704;2024-03-23T09:33:44;5.60;99.90
80426;DHT22;69766;51.476;5.704;2024-03-23T09:36:09;5.70;99.90
80426;DHT22;69766;51.476;5.704;2024-03-23T09:38:35;6.40;99.90
80426;DHT22;69766;51.476;5.704;2024-03-23T09:41:07;7.00;99.90
80426;DHT22;69766;51.476;5.704;2024-03-23T09:43:33;7.80;99.90
80426;DHT22;69766;51.476;5.704;2024-03-23T09:45:59;8.50;99.90
80426;DHT22;69766;51.476;5.704;2024-03-23T09:48:25;9.10;99.90
80426;DHT22;69766;51.476;5.704;2024-03-23T09:50:51;9.20;99.90
80426;DHT22;69766;51.476;5.704;2024-03-23T09:53:17;8.50;99.90
80426;DHT22;69766;51.476;5.704;2024-03-23T09:55:44;8.50;99.90
80426;DHT22;69766;51.476;5.704;2024-03-23T09:58:15;8.80;99.90
80426;DHT22;69766;51.476;5.704;2024-03-23T10:00:41;9.80;99.90
80426;DHT22;69766;51.476;5.704;2024-03-23T10:03:07;10.90;99.90
80426;DHT22;69766;51.476;5.704;2024-03-23T10:05:34;11.50;99.90
80426;DHT22;69766;51.476;5.704;2024-03-23T10:08:20;12.50;99.90
80426;DHT22;69766;51.476;5.704;2024-03-23T10:10:46;13.20;99.90
80426;DHT22;69766;51.476;5.704;2024-03-23T10:13:24;13.60;99.90
80426;DHT22;69766;51.476;5.704;2024-03-23T10:15:57;14.50;99.90
80426;DHT22;69766;51.476;5.704;2024-03-23T10:18:24;14.50;99.90
80426;DHT22;69766;51.476;5.704;2024-03-23T10:23:31;13.20;99.90
80426;DHT22;69766;51.476;5.704;2024-03-23T10:26:21;11.50;99.90
80426;DHT22;69766;51.476;5.704;2024-03-23T10:31:17;9.40;99.90
80426;DHT22;69766;51.476;5.704;2024-03-23T10:33:47;8.70;99.90
80426;DHT22;69766;51.476;5.704;2024-03-23T10:36:13;8.20;99.90
80426;DHT22;69766;51.476;5.704;2024-03-23T10:38:43;8.00;99.90
80426;DHT22;69766;51.476;5.704;2024-03-23T10:41:10;7.70;99.90
80426;DHT22;69766;51.476;5.704;2024-03-23T10:43:37;7.70;99.90
80426;DHT22;69766;51.476;5.704;2024-03-23T10:46:04;8.00;99.90
80426;DHT22;69766;51.476;5.704;2024-03-23T10:48:32;8.60;99.90
80426;DHT22;69766;51.476;5.704;2024-03-23T10:50:58;9.20;99.90
80426;DHT22;69766;51.476;5.704;2024-03-23T10:53:26;9.40;99.90
80426;DHT22;69766;51.476;5.704;2024-03-23T10:55:53;9.50;99.90
80426;DHT22;69766;51.476;5.704;2024-03-23T10:58:26;9.60;99.90
80426;DHT22;69766;51.476;5.704;2024-03-23T11:00:53;10.00;99.90
80426;DHT22;69766;51.476;5.704;2024-03-23T11:03:36;10.00;99.90
80426;DHT22;69766;51.476;5.704;2024-03-23T11:06:05;10.40;99.90
80426;DHT22;69766;51.476;5.704;2024-03-23T11:08:38;10.90;99.90
80426;DHT22;69766;51.476;5.704;2024-03-23T11:11:17;11.20;99.90
80426;DHT22;69766;51.476;5.704;2024-03-23T11:13:43;11.10;99.90
80426;DHT22;69766;51.476;5.704;2024-03-23T11:16:25;11.00;99.90
80426;DHT22;69766;51.476;5.704;2024-03-23T11:19:34;10.70;99.90
80426;DHT22;69766;51.476;5.704;2024-03-23T11:22:01;10.90;99.90
80426;DHT22;69766;51.476;5.704;2024-03-23T11:24:27;11.10;99.90
80426;DHT22;69766;51.476;5.704;2024-03-23T11:26:53;11.40;99.90
80426;DHT22;69766;51.476;5.704;2024-03-23T11:29:19;11.60;99.90
80426;DHT22;69766;51.476;5.704;2024-03-23T11:31:48;11.00;99.90
80426;DHT22;69766;51.476;5.704;2024-03-23T11:34:18;10.30;99.90
80426;DHT22;69766;51.476;5.704;2024-03-23T11:36:44;10.00;99.90
80426;DHT22;69766;51.476;5.704;2024-03-23T11:39:18;10.30;99.90
80426;DHT22;69766;51.476;5.704;2024-03-23T11:41:48;10.50;99.90
80426;DHT22;69766;51.476;5.704;2024-03-23T11:44:18;10.50;99.90
80426;DHT22;69766;51.476;5.704;2024-03-23T11:46:44;10.40;99.90
80426;DHT22;69766;51.476;5.704;2024-03-23T11:49:25;10.60;99.90
80426;DHT22;69766;51.476;5.704;2024-03-23T11:51:52;10.90;99.90
80426;DHT22;69766;51.476;5.704;2024-03-23T11:54:24;11.40;99.90
80426;DHT22;69766;51.476;5.704;2024-03-23T11:56:57;11.80;99.90
80426;DHT22;69766;51.476;5.704;2024-03-23T11:59:41;12.10;99.90
80426;DHT22;69766;51.476;5.704;2024-03-23T12:02:11;12.00;98.50
80426;DHT22;69766;51.476;5.704;2024-03-23T12:04:37;11.40;99.00
80426;DHT22;69766;51.476;5.704;2024-03-23T12:07:33;10.80;99.90
80426;DHT22;69766;51.476;5.704;2024-03-23T12:10:06;10.20;99.90
80426;DHT22;69766;51.476;5.704;2024-03-23T12:12:32;10.10;99.90
80426;DHT22;69766;51.476;5.704;2024-03-23T12:17:28;10.00;99.90
80426;DHT22;69766;51.476;5.704;2024-03-23T12:19:54;9.60;99.90
80426;DHT22;69766;51.476;5.704;2024-03-23T12:22:23;9.10;99.90
80426;DHT22;69766;51.476;5.704;2024-03-23T12:24:50;8.50;99.90
80426;DHT22;69766;51.476;5.704;2024-03-23T12:27:16;8.40;99.90
80426;DHT22;69766;51.476;5.704;2024-03-23T12:29:42;8.20;99.90
80426;DHT22;69766;51.476;5.704;2024-03-23T12:32:13;8.00;99.90
80426;DHT22;69766;51.476;5.704;2024-03-23T12:34:39;7.70;99.90
80426;DHT22;69766;51.476;5.704;2024-03-23T12:37:05;7.80;99.90
80426;DHT22;69766;51.476;5.704;2024-03-23T12:39:31;9.10;99.90
80426;DHT22;69766;51.476;5.704;2024-03-23T12:41:57;11.40;99.90
80426;DHT22;69766;51.476;5.704;2024-03-23T12:44:23;12.60;99.90
80426;DHT22;69766;51.476;5.704;2024-03-23T12:46:49;13.40;99.00
80426;DHT22;69766;51.476;5.704;2024-03-23T12:49:14;13.50;95.80
80426;DHT22;69766;51.476;5.704;2024-03-23T12:51:48;13.40;96.00
80426;DHT22;69766;51.476;5.704;2024-03-23T12:54:14;13.10;95.10
80426;DHT22;69766;51.476;5.704;2024-03-23T12:56:39;12.00;97.30
80426;DHT22;69766;51.476;5.704;2024-03-23T12:59:05;10.80;99.40
80426;DHT22;69766;51.476;5.704;2024-03-23T13:01:31;11.40;99.90
80426;DHT22;69766;51.476;5.704;2024-03-23T13:03:57;12.70;98.70
80426;DHT22;69766;51.476;5.704;2024-03-23T13:06:24;13.60;97.00
80426;DHT22;69766;51.476;5.704;2024-03-23T13:08:50;12.80;95.90
80426;DHT22;69766;51.476;5.704;2024-03-23T13:11:15;11.10;99.80
80426;DHT22;69766;51.476;5.704;2024-03-23T13:13:41;10.70;99.90
80426;DHT22;69766;51.476;5.704;2024-03-23T13:16:10;10.10;99.90
80426;DHT22;69766;51.476;5.704;2024-03-23T13:18:36;9.60;99.90
80426;DHT22;69766;51.476;5.704;2024-03-23T13:21:01;9.90;99.90
80426;DHT22;69766;51.476;5.704;2024-03-23T13:23:27;10.40;99.90
80426;DHT22;69766;51.476;5.704;2024-03-23T13:25:56;11.30;98.00
80426;DHT22;69766;51.476;5.704;2024-03-23T13:28:22;12.70;94.90
80426;DHT22;69766;51.476;5.704;2024-03-23T13:30:54;13.10;91.60
80426;DHT22;69766;51.476;5.704;2024-03-23T13:33:20;13.60;89.80
80426;DHT22;69766;51.476;5.704;2024-03-23T13:35:53;14.10;83.60
80426;DHT22;69766;51.476;5.704;2024-03-23T13:38:20;14.40;84.70
80426;DHT22;69766;51.476;5.704;2024-03-23T13:43:17;14.20;79.70
80426;DHT22;69766;51.476;5.704;2024-03-23T13:45:42;13.60;86.50
80426;DHT22;69766;51.476;5.704;2024-03-23T13:48:08;11.90;91.40
80426;DHT22;69766;51.476;5.704;2024-03-23T13:50:34;10.70;97.20
80426;DHT22;69766;51.476;5.704;2024-03-23T13:53:00;10.80;98.90
80426;DHT22;69766;51.476;5.704;2024-03-23T13:55:26;11.00;98.50
80426;DHT22;69766;51.476;5.704;2024-03-23T13:57:51;11.80;96.10
80426;DHT22;69766;51.476;5.704;2024-03-23T14:00:17;13.40;92.10
80426;DHT22;69766;51.476;5.704;2024-03-23T14:02:44;14.90;86.50
80426;DHT22;69766;51.476;5.704;2024-03-23T14:05:10;15.50;77.90
80426;DHT22;69766;51.476;5.704;2024-03-23T14:07:37;13.50;79.70
80426;DHT22;69766;51.476;5.704;2024-03-23T14:10:06;12.10;86.60
80426;DHT22;69766;51.476;5.704;2024-03-23T14:12:32;11.30;91.40
80426;DHT22;69766;51.476;5.704;2024-03-23T14:14:57;10.80;95.20
80426;DHT22;69766;51.476;5.704;2024-03-23T14:17:23;10.00;97.10
80426;DHT22;69766;51.476;5.704;2024-03-23T14:19:49;9.70;99.10
80426;DHT22;69766;51.476;5.704;2024-03-23T14:22:15;9.60;99.90
80426;DHT22;69766;51.476;5.704;2024-03-23T14:24:45;10.20;99.90
80426;DHT22;69766;51.476;5.704;2024-03-23T14:27:10;10.90;99.90
80426;DHT22;69766;51.476;5.704;2024-03-23T14:29:39;11.10;97.60
80426;DHT22;69766;51.476;5.704;2024-03-23T14:32:05;10.90;99.90
80426;DHT22;69766;51.476;5.704;2024-03-23T14:34:30;10.40;99.90
80426;DHT22;69766;51.476;5.704;2024-03-23T14:36:56;11.10;99.90
80426;DHT22;69766;51.476;5.704;2024-03-23T14:39:25;11.60;99.70
80426;DHT22;69766;51.476;5.704;2024-03-23T14:41:51;12.90;98.40
80426;DHT22;69766;51.476;5.704;2024-03-23T14:44:16;13.10;95.50
80426;DHT22;69766;51.476;5.704;2024-03-23T14:46:42;13.00;95.70
80426;DHT22;69766;51.476;5.704;2024-03-23T14:49:08;13.60;95.40
80426;DHT22;69766;51.476;5.704;2024-03-23T14:51:34;13.50;93.30
80426;DHT22;69766;51.476;5.704;2024-03-23T14:54:00;13.70;94.70
80426;DHT22;69766;51.476;5.704;2024-03-23T14:56:25;14.00;91.80
80426;DHT22;69766;51.476;5.704;2024-03-23T14:58:54;13.50;92.30
80426;DHT22;69766;51.476;5.704;2024-03-23T15:01:21;13.00;93.00
80426;DHT22;69766;51.476;5.704;2024-03-23T15:03:47;12.70;94.00
80426;DHT22;69766;51.476;5.704;2024-03-23T15:06:13;12.60;93.70
80426;DHT22;69766;51.476;5.704;2024-03-23T15:08:39;13.20;93.10
80426;DHT22;69766;51.476;5.704;2024-03-23T15:11:06;13.30;93.60
80426;DHT22;69766;51.476;5.704;2024-03-23T15:13:35;12.90;92.20
80426;DHT22;69766;51.476;5.704;2024-03-23T15:16:01;12.70;93.80
80426;DHT22;69766;51.476;5.704;2024-03-23T15:18:29;12.80;94.50
80426;DHT22;69766;51.476;5.704;2024-03-23T15:20:59;13.10;93.20
80426;DHT22;69766;51.476;5.704;2024-03-23T15:23:31;12.80;93.30
80426;DHT22;69766;51.476;5.704;2024-03-23T15:26:01;13.00;91.90
80426;DHT22;69766;51.476;5.704;2024-03-23T15:28:27;12.70;92.50
80426;DHT22;69766;51.476;5.704;2024-03-23T15:31:04;12.20;93.40
80426;DHT22;69766;51.476;5.704;2024-03-23T15:33:30;10.90;94.50
80426;DHT22;69766;51.476;5.704;2024-03-23T15:35:59;9.70;97.30
80426;DHT22;69766;51.476;5.704;2024-03-23T15:38:25;9.20;99.90
80426;DHT22;69766;51.476;5.704;2024-03-23T15:40:53;8.90;99.90
80426;DHT22;69766;51.476;5.704;2024-03-23T15:43:19;8.60;99.90
80426;DHT22;69766;51.476;5.704;2024-03-23T15:45:57;8.30;99.90
80426;DHT22;69766;51.476;5.704;2024-03-23T15:48:23;8.20;99.90
80426;DHT22;69766;51.476;5.704;2024-03-23T15:50:51;7.90;99.90
80426;DHT22;69766;51.476;5.704;2024-03-23T15:53:18;7.80;99.90
80426;DHT22;69766;51.476;5.704;2024-03-23T15:55:44;7.70;99.90
80426;DHT22;69766;51.476;5.704;2024-03-23T15:58:09;7.20;99.90
80426;DHT22;69766;51.476;5.704;2024-03-23T16:00:35;6.90;99.90
80426;DHT22;69766;51.476;5.704;2024-03-23T16:03:01;6.80;99.90
80426;DHT22;69766;51.476;5.704;2024-03-23T16:05:26;6.50;99.90
80426;DHT22;69766;51.476;5.704;2024-03-23T16:07:53;6.20;99.90
80426;DHT22;69766;51.476;5.704;2024-03-23T16:10:18;6.20;99.90
80426;DHT22;69766;51.476;5.704;2024-03-23T16:12:44;6.00;99.90
80426;DHT22;69766;51.476;5.704;2024-03-23T16:15:10;5.90;99.90
80426;DHT22;69766;51.476;5.704;2024-03-23T16:17:35;5.90;99.90
80426;DHT22;69766;51.476;5.704;2024-03-23T16:20:03;5.90;99.90
80426;DHT22;69766;51.476;5.704;2024-03-23T16:22:29;5.90;99.90
80426;DHT22;69766;51.476;5.704;2024-03-23T16:24:55;6.00;99.90
80426;DHT22;69766;51.476;5.704;2024-03-23T16:27:23;6.00;99.90
80426;DHT22;69766;51.476;5.704;2024-03-23T16:29:51;5.80;99.90
80426;DHT22;69766;51.476;5.704;2024-03-23T16:32:16;5.70;99.90
80426;DHT22;69766;51.476;5.704;2024-03-23T16:34:42;5.60;99.90
80426;DHT22;69766;51.476;5.704;2024-03-23T16:37:08;5.70;99.90
80426;DHT22;69766;51.476;5.704;2024-03-23T16:39:36;5.60;99.90
80426;DHT22;69766;51.476;5.704;2024-03-23T16:42:02;5.70;99.90
80426;DHT22;69766;51.476;5.704;2024-03-23T16:44:29;5.60;99.90
80426;DHT22;69766;51.476;5.704;2024-03-23T16:46:54;5.70;99.90
80426;DHT22;69766;51.476;5.704;2024-03-23T16:49:20;5.90;99.90
80426;DHT22;69766;51.476;5.704;2024-03-23T16:51:46;5.90;99.90
80426;DHT22;69766;51.476;5.704;2024-03-23T16:54:11;6.00;99.90
80426;DHT22;69766;51.476;5.704;2024-03-23T16:56:37;5.90;99.90
80426;DHT22;69766;51.476;5.704;2024-03-23T16:59:03;5.70;99.90
80426;DHT22;69766;51.476;5.704;2024-03-23T17:01:30;5.80;99.90
80426;DHT22;69766;51.476;5.704;2024-03-23T17:03:55;5.70;99.90
80426;DHT22;69766;51.476;5.704;2024-03-23T17:06:21;5.80;99.90
80426;DHT22;69766;51.476;5.704;2024-03-23T17:08:49;5.80;99.90
80426;DHT22;69766;51.476;5.704;2024-03-23T17:11:16;5.90;99.90